Flight Track Log - Related Links

Times and Time Zones

All times are in EDT time to prevent confusion due to time zone crossing. See the JBU917 flight status page for this flight to view local times or setup timezone preferences in your user account.

Time Position Orientation Groundspeed Altitude Reporting Facility
EDT Latitude Longitude Course Direction KTS MPH feet Rate Location/Type
Mon 17:37:18 40.6333 -73.7167 304° West 176 203 2,800  Level New York TRACON
Mon 17:38:18 40.6333 -73.6333 90° East 237 273 5,200 2,600 Climbing New York TRACON
Mon 17:39:00 40.8561 -74.1954 304° West  Level FlightAware Approximate
Mon 17:39:18 40.7000 -73.5833 30° Northeast 267 307 8,000  Level New York TRACON
Mon 17:40:00 40.9147 -74.3045 306° West  Level FlightAware Approximate
Mon 17:40:18 40.7667 -73.5500 21° North 299 344 10,600  Level New York TRACON
Mon 17:41:00 40.9765 -74.4098 323° Northwest  Level FlightAware Approximate
Mon 17:41:18 40.8500 -73.6167 329° Northwest 342 394 12,400  Level New York TRACON
Mon 17:42:00 41.0396 -74.5126 304° West  Level FlightAware Approximate
Mon 17:42:18 40.9167 -73.7000 317° Northwest 350 403 15,100  Level New York TRACON
Mon 17:43:18 41.0000 -73.8000 318° Northwest 359 413 17,000 537 Climbing New York TRACON
Mon 17:45:39 41.0678 -74.0600 289° West 347 399 16,900 -30 Descending New York Center
Mon 17:46:40 41.0825 -74.2011 278° West 347 399 16,900  Level New York Center
Mon 17:47:41 41.0978 -74.3200 280° West 356 410 16,900  Level New York Center
Mon 17:48:40 41.1122 -74.4614 278° West 356 410 16,900 50 Level New York Center
Mon 17:49:41 41.1253 -74.5750 279° West 356 410 17,000 298 Climbing New York Center
Mon 17:50:41 41.1478 -74.7167 282° West 356 410 17,500 915 Climbing New York Center
Mon 17:51:39 41.1864 -74.8100 299° West 351 404 18,800 1,831 Climbing New York Center
Mon 17:52:39 41.2442 -74.9431 300° West 370 426 21,100 2,033 Climbing New York Center
Mon 17:53:40 41.2981 -75.0653 300° West 382 440 22,900 1,721 Climbing New York Center
Mon 17:54:41 41.3517 -75.1931 299° West 387 445 24,600 1,664 Climbing New York Center
Mon 17:55:39 41.4053 -75.3181 300° West 392 451 26,200 1,627 Climbing New York Center
Mon 17:56:39 41.4625 -75.4494 300° West 398 458 27,800 1,587 Climbing New York Center
Mon 17:57:40 41.5050 -75.5853 293° West 398 458 29,400 1,587 Climbing New York Center
Mon 17:58:40 41.5433 -75.7183 291° West 387 445 31,000 1,438 Climbing New York Center
Mon 17:59:41 41.5817 -75.8486 292° West 382 440 32,300 1,240 Climbing New York Center
Mon 18:00:41 41.6194 -75.9819 291° West 382 440 33,500 857 Climbing New York Center
Mon 18:01:40 41.6553 -76.1125 290° West 376 433 34,000 252 Climbing New York Center
Mon 18:02:40 41.6928 -76.2489 290° West 381 438 34,000 50 Level New York Center
Mon 18:03:41 41.7319 -76.3911 290° West 399 459 34,100 597 Climbing New York Center
Mon 18:06:01 41.8264 -76.7261 291° West 384 442 36,000 570 Climbing Cleveland Center
Mon 18:07:01 41.8664 -76.8661 291° West 390 449 36,000  Level Cleveland Center
Mon 18:08:01 41.9044 -77.0061 290° West 395 455 36,000  Level Cleveland Center
Mon 18:09:01 41.9400 -77.1467 289° West 400 460 36,000  Level Cleveland Center
Mon 18:10:01 41.9794 -77.2897 290° West 405 466 36,000  Level Cleveland Center
Mon 18:11:01 42.0192 -77.4358 290° West 405 466 36,000  Level Cleveland Center
Mon 18:12:01 42.0539 -77.5711 289° West 405 466 36,000  Level Cleveland Center
Mon 18:13:01 42.0931 -77.7122 291° West 400 460 36,000  Level Cleveland Center
Mon 18:14:01 42.1297 -77.8533 289° West 405 466 36,000  Level Cleveland Center
Mon 18:15:01 42.1683 -77.9917 291° West 400 460 36,000  Level Cleveland Center
Mon 18:16:01 42.2664 -78.0886 324° Northwest 405 466 36,000  Level Cleveland Center
Mon 18:17:01 42.3764 -78.1658 333° Northwest 420 483 36,000  Level Cleveland Center
Mon 18:18:01 42.4308 -78.2792 303° West 420 483 36,000  Level Cleveland Center
Mon 18:19:01 42.4422 -78.4281 276° West 394 453 36,000  Level Cleveland Center
Mon 18:20:01 42.4511 -78.5767 275° West 385 443 36,000  Level Cleveland Center
Mon 18:21:01 42.4578 -78.7258 274° West 395 455 36,000  Level Cleveland Center
Mon 18:22:01 42.4683 -78.8747 276° West 395 455 36,000  Level Cleveland Center
Mon 18:23:01 42.4767 -79.0236 274° West 400 460 36,000  Level Cleveland Center
Mon 18:24:01 42.4869 -79.1725 275° West 405 466 36,000  Level Cleveland Center
Mon 18:25:01 42.4950 -79.3244 274° West 405 466 36,000  Level Cleveland Center
Mon 18:26:01 42.5092 -79.4706 278° West 405 466 36,000  Level Cleveland Center
Mon 18:27:01 42.5956 -79.5819 317° Northwest 391 450 36,000  Level Cleveland Center
Mon 18:28:01 42.6922 -79.6792 324° Northwest 402 463 36,000  Level Cleveland Center
Mon 18:29:01 42.7161 -79.8231 283° West 391 450 36,000  Level Cleveland Center
Mon 18:30:01 42.6689 -79.9564 244° Southwest 354 407 36,000  Level Cleveland Center
Mon 18:31:01 42.6092 -80.0839 238° Southwest 391 450 36,000  Level Cleveland Center
Mon 18:32:01 42.5597 -80.2167 243° Southwest 391 450 36,000  Level Cleveland Center
Mon 18:33:01 42.5414 -80.3550 260° West 380 437 36,000  Level Cleveland Center
Mon 18:34:01 42.5456 -80.5211 272° West 390 449 36,000  Level Cleveland Center
Mon 18:35:01 42.5519 -80.6706 273° West 395 455 36,000  Level Cleveland Center
Mon 18:36:01 42.5578 -80.8200 273° West 402 463 36,000  Level Cleveland Center
Mon 18:37:01 42.5639 -80.9694 273° West 402 463 36,000  Level Cleveland Center
Mon 18:38:01 42.5672 -81.1161 272° West 402 463 36,000  Level Cleveland Center
Mon 18:39:01 42.5728 -81.2711 273° West 397 457 36,000  Level Cleveland Center
Mon 18:40:01 42.5800 -81.4178 274° West 404 465 36,000  Level Cleveland Center
Mon 18:41:01 42.6019 -81.5647 282° West 404 465 36,000  Level Cleveland Center
Mon 18:42:01 42.6278 -81.7092 284° West 409 471 36,000  Level Cleveland Center
Mon 18:43:01 42.6553 -81.8564 284° West 409 471 36,000  Level Cleveland Center
Mon 18:44:01 42.6786 -82.0036 282° West 409 471 36,000  Level Cleveland Center
Mon 18:45:01 42.7036 -82.1542 283° West 409 471 36,000  Level Cleveland Center
Mon 18:46:01 42.7286 -82.3044 283° West 414 476 36,000  Level Cleveland Center
Mon 18:47:01 42.7575 -82.4581 284° West 414 476 36,000  Level Cleveland Center
Mon 18:48:01 42.7783 -82.5914 282° West 419 482 36,000  Level Cleveland Center
Mon 18:49:01 42.8028 -82.7394 283° West 409 471 36,000  Level Cleveland Center
Mon 18:50:01 42.8289 -82.8875 284° West 403 464 36,000  Level Cleveland Center
Mon 18:51:01 42.8531 -83.0358 283° West 403 464 36,000  Level Cleveland Center
Mon 18:52:01 42.8769 -83.1842 282° West 403 464 36,000 -200 Level Cleveland Center
Mon 18:53:01 42.8986 -83.3294 282° West 398 458 35,600 -700 Descending Cleveland Center
Mon 18:54:01 42.9411 -83.4647 293° West 392 451 34,600 -1,000 Descending Cleveland Center
Mon 18:55:01 42.9939 -83.5950 299° West 392 451 33,600 -1,000 Descending Cleveland Center
Mon 18:56:01 43.0489 -83.7228 301° West 392 451 32,600 -1,000 Descending Cleveland Center
Mon 18:57:01 43.0492 -83.8675 270° West 384 442 31,600 -1,000 Descending Cleveland Center
Mon 18:58:01 43.0136 -84.0133 252° West 387 445 30,600 -1,000 Descending Cleveland Center
Mon 18:59:01 42.9797 -84.1647 253° West 393 452 29,600 -950 Descending Cleveland Center
Mon 19:00:01 42.9461 -84.3103 253° West 404 465 28,700 -923 Descending Cleveland Center
Mon 19:00:32 42.9314 -84.3767 253° West 410 472 28,200 -452 Descending Chicago Center
Mon 19:01:34 42.8900 -84.5550 252° West 411 473 28,000 -97 Descending Chicago Center
Mon 19:02:36 42.8719 -84.7011 260° West 386 444 28,000  Level Chicago Center
Mon 19:03:38 42.8583 -84.8325 262° West 354 407 28,000  Level Chicago Center
Mon 19:04:39 42.8439 -84.9672 262° West 358 412 28,000 -98 Level Chicago Center
Mon 19:05:41 42.8297 -85.1003 262° West 357 411 27,800 -823 Descending Chicago Center
Mon 19:06:43 42.8156 -85.2339 262° West 356 410 26,300 -871 Descending Chicago Center
Mon 19:07:45 42.8014 -85.3619 261° West 345 397 26,000 -145 Descending Chicago Center
Mon 19:08:47 42.7828 -85.5186 261° West 348 400 26,000  Level Chicago Center
Mon 19:09:48 42.7600 -85.6483 257° West 349 402 26,000  Level Chicago Center
Mon 19:10:50 42.7339 -85.7911 256° West 378 435 26,000 -581 Level Chicago Center
Mon 19:11:52 42.7061 -85.9431 256° West 406 467 24,800 -1,597 Descending Chicago Center
Mon 19:12:54 42.6792 -86.0911 256° West 404 465 22,700 -2,032 Descending Chicago Center
Mon 19:13:56 42.6539 -86.2300 256° West 383 441 20,600 -1,317 Descending Chicago Center
Mon 19:14:57 42.6278 -86.3656 255° West 372 428 20,000 -1,073 Descending Chicago Center
Mon 19:15:59 42.6025 -86.5014 256° West 371 427 18,400 -1,597 Descending Chicago Center
Mon 19:17:01 42.5783 -86.6314 256° West 359 413 16,700 -1,742 Descending Chicago Center
Mon 19:18:03 42.5494 -86.7750 255° West 334 384 14,800 -1,742 Descending Chicago Center
Mon 19:19:05 42.5181 -86.8900 250° West 329 379 13,100 -1,561 Descending Chicago Center
Mon 19:20:06 42.4889 -86.9950 249° West 311 358 11,600 -1,171 Descending Chicago Center
Mon 19:21:08 42.4619 -87.0883 249° West 274 315 10,700 -968 Descending Chicago Center
Mon 19:22:10 42.4353 -87.1842 249° West 273 314 9,600 -823 Descending Chicago Center
Mon 19:23:12 42.4092 -87.2789 250° West 270 311 9,000 -823 Descending Chicago Center
Mon 19:24:14 42.3783 -87.3894 249° West 264 304 7,900 -968 Descending Chicago Center
Mon 19:25:16 42.3436 -87.4725 241° Southwest 260 299 7,000 -484 Descending Chicago Center
Mon 19:26:18 42.3025 -87.5558 236° Southwest 259 298 6,900 -732 Descending Chicago Center
Mon 19:27:19 42.2489 -87.6178 221° Southwest 258 297 5,500 -927 Descending Chicago Center
Mon 19:28:21 42.2011 -87.6722 220° Southwest 236 272 5,000 -339 Descending Chicago Center
Mon 19:29:23 42.1567 -87.7222 220° Southwest 214 246 4,800 -774 Descending Chicago Center
Mon 19:30:25 42.1039 -87.7800 219° Southwest 208 239 3,400 -1,113 Descending Chicago Center
Mon 19:31:27 42.0667 -87.8233 221° Southwest 195 224 2,500 -1,000 Descending Chicago Center
Mon 19:31:43 42.0500 -87.8333 204° Southwest 176 203 2,100 -947 Descending Chicago TRACON
Mon 19:32:43 42.0167 -87.8667 217° Southwest 137 158 1,300 -800 Descending Chicago TRACON
Mon 19:35:00 41.9817 -87.9067 217° Southwest  Level Estimated

Login

Don't have an account? Register now (free) for customized features, flight alerts, and more!